sensor_id;sensor_type;location;lat;lon;timestamp;pressure;altitude;pressure_sealevel;temperature;humidity
54666;BME280;40566;50.006;36.180;2023-06-04T00:03:28;100304.47;;;10.68;60.54
54666;BME280;40566;50.006;36.180;2023-06-04T00:08:29;100307.06;;;10.68;60.42
54666;BME280;40566;50.006;36.180;2023-06-04T00:13:29;100301.97;;;10.62;60.51
54666;BME280;40566;50.006;36.180;2023-06-04T00:18:30;100317.59;;;10.56;60.41
54666;BME280;40566;50.006;36.180;2023-06-04T00:23:30;100321.13;;;10.52;60.51
54666;BME280;40566;50.006;36.180;2023-06-04T00:28:31;100320.41;;;10.45;60.40
54666;BME280;40566;50.006;36.180;2023-06-04T00:33:32;100313.59;;;10.41;60.35
54666;BME280;40566;50.006;36.180;2023-06-04T00:38:32;100322.31;;;10.34;60.70
54666;BME280;40566;50.006;36.180;2023-06-04T00:43:33;100323.25;;;10.30;60.67
54666;BME280;40566;50.006;36.180;2023-06-04T00:48:36;100324.19;;;10.24;60.60
54666;BME280;40566;50.006;36.180;2023-06-04T00:53:38;100325.06;;;10.23;60.56
54666;BME280;40566;50.006;36.180;2023-06-04T00:58:39;100331.19;;;10.18;60.75
54666;BME280;40566;50.006;36.180;2023-06-04T01:03:42;100317.47;;;10.14;60.87
54666;BME280;40566;50.006;36.180;2023-06-04T01:08:48;100337.31;;;10.12;60.89
54666;BME280;40566;50.006;36.180;2023-06-04T01:13:49;100338.28;;;10.05;60.73
54666;BME280;40566;50.006;36.180;2023-06-04T01:18:50;100352.13;;;10.02;60.97
54666;BME280;40566;50.006;36.180;2023-06-04T01:23:52;100348.69;;;10.02;60.88
54666;BME280;40566;50.006;36.180;2023-06-04T01:29:00;100347.91;;;9.97;60.93
54666;BME280;40566;50.006;36.180;2023-06-04T01:34:02;100362.59;;;9.93;61.16
54666;BME280;40566;50.006;36.180;2023-06-04T01:39:02;100361.72;;;9.94;61.10
54666;BME280;40566;50.006;36.180;2023-06-04T01:44:03;100364.31;;;9.94;61.14
54666;BME280;40566;50.006;36.180;2023-06-04T01:49:03;100363.47;;;9.93;61.20
54666;BME280;40566;50.006;36.180;2023-06-04T01:54:06;100371.22;;;9.93;61.49
54666;BME280;40566;50.006;36.180;2023-06-04T01:59:07;100374.56;;;9.99;61.20
54666;BME280;40566;50.006;36.180;2023-06-04T02:04:07;100371.16;;;9.95;61.16
54666;BME280;40566;50.006;36.180;2023-06-04T02:09:08;100374.59;;;9.97;61.30
54666;BME280;40566;50.006;36.180;2023-06-04T02:14:09;100384.09;;;9.95;61.30
54666;BME280;40566;50.006;36.180;2023-06-04T02:19:09;100384.97;;;9.94;61.63
54666;BME280;40566;50.006;36.180;2023-06-04T02:24:13;100385.72;;;10.01;61.28
54666;BME280;40566;50.006;36.180;2023-06-04T02:29:13;100389.22;;;9.98;61.24
54666;BME280;40566;50.006;36.180;2023-06-04T02:34:14;100392.66;;;9.99;61.33
54666;BME280;40566;50.006;36.180;2023-06-04T02:39:15;100395.25;;;9.97;61.44
54666;BME280;40566;50.006;36.180;2023-06-04T02:44:15;100403.78;;;10.04;61.23
54666;BME280;40566;50.006;36.180;2023-06-04T02:49:16;100407.97;;;10.11;61.14
54666;BME280;40566;50.006;36.180;2023-06-04T02:54:17;100414.06;;;10.08;61.26
54666;BME280;40566;50.006;36.180;2023-06-04T02:59:17;100418.41;;;10.06;61.49
54666;BME280;40566;50.006;36.180;2023-06-04T03:04:18;100422.59;;;10.15;61.46
54666;BME280;40566;50.006;36.180;2023-06-04T03:09:18;100433.81;;;10.12;61.53
54666;BME280;40566;50.006;36.180;2023-06-04T03:14:19;100434.53;;;10.22;61.30
54666;BME280;40566;50.006;36.180;2023-06-04T03:19:20;100443.94;;;10.28;61.20
54666;BME280;40566;50.006;36.180;2023-06-04T03:24:21;100449.09;;;10.28;61.13
54666;BME280;40566;50.006;36.180;2023-06-04T03:29:21;100454.16;;;10.39;61.17
54666;BME280;40566;50.006;36.180;2023-06-04T03:34:22;100447.16;;;10.44;60.81
54666;BME280;40566;50.006;36.180;2023-06-04T03:39:25;100436.72;;;10.48;60.88
54666;BME280;40566;50.006;36.180;2023-06-04T03:44:26;100453.97;;;10.48;61.12
54666;BME280;40566;50.006;36.180;2023-06-04T03:49:27;100466.00;;;10.52;60.96
54666;BME280;40566;50.006;36.180;2023-06-04T03:54:27;100464.06;;;10.66;60.61
54666;BME280;40566;50.006;36.180;2023-06-04T03:59:28;100463.06;;;10.72;60.59
54666;BME280;40566;50.006;36.180;2023-06-04T04:04:28;100469.75;;;10.85;60.30
54666;BME280;40566;50.006;36.180;2023-06-04T04:09:29;100472.13;;;10.98;60.02
54666;BME280;40566;50.006;36.180;2023-06-04T04:14:29;100476.16;;;11.14;59.76
54666;BME280;40566;50.006;36.180;2023-06-04T04:19:30;100478.63;;;11.22;59.53
54666;BME280;40566;50.006;36.180;2023-06-04T04:24:31;100477.56;;;11.30;59.49
54666;BME280;40566;50.006;36.180;2023-06-04T04:29:34;100478.13;;;11.46;59.14
54666;BME280;40566;50.006;36.180;2023-06-04T04:34:35;100472.66;;;11.62;58.64
54666;BME280;40566;50.006;36.180;2023-06-04T04:39:37;100487.94;;;11.74;58.26
54666;BME280;40566;50.006;36.180;2023-06-04T04:44:38;100487.66;;;11.86;58.06
54666;BME280;40566;50.006;36.180;2023-06-04T04:49:38;100495.28;;;11.96;57.93
54666;BME280;40566;50.006;36.180;2023-06-04T04:54:39;100505.22;;;12.16;57.33
54666;BME280;40566;50.006;36.180;2023-06-04T04:59:40;100511.72;;;12.35;56.89
54666;BME280;40566;50.006;36.180;2023-06-04T05:04:40;100518.31;;;12.50;56.15
54666;BME280;40566;50.006;36.180;2023-06-04T05:09:41;100518.88;;;12.61;55.73
54666;BME280;40566;50.006;36.180;2023-06-04T05:14:42;100527.13;;;12.79;54.61
54666;BME280;40566;50.006;36.180;2023-06-04T05:19:42;100518.16;;;12.92;53.84
54666;BME280;40566;50.006;36.180;2023-06-04T05:24:43;100520.38;;;13.07;53.45
54666;BME280;40566;50.006;36.180;2023-06-04T05:29:43;100527.00;;;13.19;52.49
54666;BME280;40566;50.006;36.180;2023-06-04T05:34:44;100533.72;;;13.26;52.08
54666;BME280;40566;50.006;36.180;2023-06-04T05:39:44;100532.69;;;13.34;51.77
54666;BME280;40566;50.006;36.180;2023-06-04T05:44:45;100525.47;;;13.45;50.69
54666;BME280;40566;50.006;36.180;2023-06-04T05:49:46;100529.38;;;13.60;49.65
54666;BME280;40566;50.006;36.180;2023-06-04T05:54:46;100527.53;;;13.65;49.44
54666;BME280;40566;50.006;36.180;2023-06-04T05:59:47;100508.78;;;13.83;48.36
54666;BME280;40566;50.006;36.180;2023-06-04T06:04:48;100512.78;;;13.95;47.69
54666;BME280;40566;50.006;36.180;2023-06-04T06:09:48;100502.97;;;14.05;47.20
54666;BME280;40566;50.006;36.180;2023-06-04T06:14:49;100524.31;;;14.16;46.73
54666;BME280;40566;50.006;36.180;2023-06-04T06:19:49;100520.50;;;14.28;46.44
54666;BME280;40566;50.006;36.180;2023-06-04T06:24:50;100508.09;;;14.36;46.48
54666;BME280;40566;50.006;36.180;2023-06-04T06:29:51;100512.81;;;14.52;46.32
54666;BME280;40566;50.006;36.180;2023-06-04T06:34:51;100524.63;;;14.63;45.64
54666;BME280;40566;50.006;36.180;2023-06-04T06:39:52;100512.81;;;14.80;45.09
54666;BME280;40566;50.006;36.180;2023-06-04T06:44:52;100506.53;;;14.85;43.85
54666;BME280;40566;50.006;36.180;2023-06-04T06:49:53;100508.94;;;14.92;43.41
54666;BME280;40566;50.006;36.180;2023-06-04T06:54:54;100503.50;;;14.98;42.74
54666;BME280;40566;50.006;36.180;2023-06-04T06:59:55;100501.41;;;15.09;42.47
54666;BME280;40566;50.006;36.180;2023-06-04T07:04:56;100496.56;;;15.23;41.53
54666;BME280;40566;50.006;36.180;2023-06-04T07:09:57;100490.91;;;15.36;40.91
54666;BME280;40566;50.006;36.180;2023-06-04T07:14:57;100492.63;;;15.37;40.38
54666;BME280;40566;50.006;36.180;2023-06-04T07:19:58;100486.91;;;15.51;40.25
54666;BME280;40566;50.006;36.180;2023-06-04T07:24:58;100478.34;;;15.71;40.04
54666;BME280;40566;50.006;36.180;2023-06-04T07:29:59;100480.66;;;15.80;39.41
54666;BME280;40566;50.006;36.180;2023-06-04T07:34:59;100487.09;;;15.93;39.27
54666;BME280;40566;50.006;36.180;2023-06-04T07:40:00;100480.69;;;16.02;38.74
54666;BME280;40566;50.006;36.180;2023-06-04T07:45:01;100485.91;;;16.02;39.13
54666;BME280;40566;50.006;36.180;2023-06-04T07:50:03;100472.13;;;16.20;38.65
54666;BME280;40566;50.006;36.180;2023-06-04T07:55:04;100467.19;;;16.35;38.32
54666;BME280;40566;50.006;36.180;2023-06-04T08:00:06;100465.59;;;16.53;38.09
54666;BME280;40566;50.006;36.180;2023-06-04T08:05:08;100458.56;;;16.55;38.39
54666;BME280;40566;50.006;36.180;2023-06-04T08:10:09;100470.81;;;16.75;37.78
54666;BME280;40566;50.006;36.180;2023-06-04T08:15:10;100476.59;;;16.83;38.04
54666;BME280;40566;50.006;36.180;2023-06-04T08:20:11;100466.53;;;16.94;38.00
54666;BME280;40566;50.006;36.180;2023-06-04T08:25:11;100474.22;;;17.18;37.30
54666;BME280;40566;50.006;36.180;2023-06-04T08:30:13;100476.84;;;17.18;37.36
54666;BME280;40566;50.006;36.180;2023-06-04T08:35:14;100459.97;;;17.25;37.09
54666;BME280;40566;50.006;36.180;2023-06-04T08:40:15;100475.53;;;17.28;37.07
54666;BME280;40566;50.006;36.180;2023-06-04T08:45:20;100453.06;;;17.43;36.77
54666;BME280;40566;50.006;36.180;2023-06-04T08:50:22;100444.88;;;17.51;36.64
54666;BME280;40566;50.006;36.180;2023-06-04T08:55:23;100452.66;;;17.52;36.71
54666;BME280;40566;50.006;36.180;2023-06-04T09:00:24;100450.59;;;17.59;36.21
54666;BME280;40566;50.006;36.180;2023-06-04T09:05:24;100450.03;;;17.71;36.56
54666;BME280;40566;50.006;36.180;2023-06-04T09:10:25;100460.09;;;17.80;35.94
54666;BME280;40566;50.006;36.180;2023-06-04T09:15:27;100456.56;;;17.81;36.05
54666;BME280;40566;50.006;36.180;2023-06-04T09:20:27;100449.38;;;17.87;35.84
54666;BME280;40566;50.006;36.180;2023-06-04T09:25:28;100444.41;;;17.99;35.63
54666;BME280;40566;50.006;36.180;2023-06-04T09:30:29;100469.59;;;18.02;35.37
54666;BME280;40566;50.006;36.180;2023-06-04T09:35:30;100463.50;;;18.01;35.10
54666;BME280;40566;50.006;36.180;2023-06-04T09:40:37;100442.75;;;18.16;34.83
54666;BME280;40566;50.006;36.180;2023-06-04T09:45:38;100443.69;;;18.15;34.93
54666;BME280;40566;50.006;36.180;2023-06-04T09:50:38;100440.22;;;18.32;34.60
54666;BME280;40566;50.006;36.180;2023-06-04T09:55:42;100442.34;;;18.42;34.74
54666;BME280;40566;50.006;36.180;2023-06-04T10:00:44;100433.00;;;18.72;33.97
54666;BME280;40566;50.006;36.180;2023-06-04T10:05:46;100429.22;;;19.12;33.39
54666;BME280;40566;50.006;36.180;2023-06-04T10:10:47;100428.41;;;19.28;33.13
54666;BME280;40566;50.006;36.180;2023-06-04T10:15:50;100426.78;;;19.25;32.92
54666;BME280;40566;50.006;36.180;2023-06-04T10:20:54;100422.81;;;19.18;32.98
54666;BME280;40566;50.006;36.180;2023-06-04T10:25:56;100429.22;;;19.12;33.21
54666;BME280;40566;50.006;36.180;2023-06-04T10:30:57;100421.78;;;19.20;32.57
54666;BME280;40566;50.006;36.180;2023-06-04T10:35:57;100417.06;;;19.27;32.85
54666;BME280;40566;50.006;36.180;2023-06-04T10:40:58;100408.13;;;19.31;32.43
54666;BME280;40566;50.006;36.180;2023-06-04T10:46:13;100393.91;;;19.35;32.50
54666;BME280;40566;50.006;36.180;2023-06-04T10:51:15;100410.06;;;19.28;32.49
54666;BME280;40566;50.006;36.180;2023-06-04T10:56:27;100400.00;;;19.36;32.37
54666;BME280;40566;50.006;36.180;2023-06-04T11:01:28;100399.53;;;19.61;32.39
54666;BME280;40566;50.006;36.180;2023-06-04T11:06:29;100409.00;;;20.11;31.71
54666;BME280;40566;50.006;36.180;2023-06-04T11:11:30;100412.72;;;20.07;31.56
54666;BME280;40566;50.006;36.180;2023-06-04T11:16:32;100387.66;;;20.01;31.51
54666;BME280;40566;50.006;36.180;2023-06-04T11:21:37;100397.28;;;20.17;31.33
54666;BME280;40566;50.006;36.180;2023-06-04T11:26:38;100409.91;;;20.56;31.21
54666;BME280;40566;50.006;36.180;2023-06-04T11:31:46;100395.34;;;20.95;30.22
54666;BME280;40566;50.006;36.180;2023-06-04T11:36:47;100397.44;;;20.60;30.65
54666;BME280;40566;50.006;36.180;2023-06-04T11:41:50;100396.66;;;20.28;31.59
54666;BME280;40566;50.006;36.180;2023-06-04T11:46:51;100403.47;;;20.16;31.49
54666;BME280;40566;50.006;36.180;2023-06-04T11:51:54;100400.97;;;19.98;31.39
54666;BME280;40566;50.006;36.180;2023-06-04T11:56:55;100414.19;;;19.97;31.64
54666;BME280;40566;50.006;36.180;2023-06-04T12:01:55;100404.09;;;20.05;31.24
54666;BME280;40566;50.006;36.180;2023-06-04T12:06:58;100396.38;;;20.02;31.23
54666;BME280;40566;50.006;36.180;2023-06-04T12:12:02;100393.09;;;19.98;31.32
54666;BME280;40566;50.006;36.180;2023-06-04T12:17:08;100394.63;;;20.03;31.29
54666;BME280;40566;50.006;36.180;2023-06-04T12:22:09;100405.75;;;20.06;31.23
54666;BME280;40566;50.006;36.180;2023-06-04T12:27:09;100413.72;;;20.20;30.59
54666;BME280;40566;50.006;36.180;2023-06-04T12:32:10;100405.59;;;20.09;30.82
54666;BME280;40566;50.006;36.180;2023-06-04T12:37:13;100397.72;;;20.09;30.64
54666;BME280;40566;50.006;36.180;2023-06-04T12:42:14;100407.59;;;20.20;30.76
54666;BME280;40566;50.006;36.180;2023-06-04T12:47:15;100411.53;;;20.13;30.55
54666;BME280;40566;50.006;36.180;2023-06-04T12:52:17;100398.03;;;20.19;30.39
54666;BME280;40566;50.006;36.180;2023-06-04T12:57:18;100410.22;;;20.20;30.02
54666;BME280;40566;50.006;36.180;2023-06-04T13:02:19;100404.34;;;20.16;30.01
54666;BME280;40566;50.006;36.180;2023-06-04T13:07:19;100408.56;;;20.19;30.09
54666;BME280;40566;50.006;36.180;2023-06-04T13:12:20;100402.34;;;20.20;29.98
54666;BME280;40566;50.006;36.180;2023-06-04T13:17:20;100407.28;;;20.26;29.93
54666;BME280;40566;50.006;36.180;2023-06-04T13:22:22;100396.41;;;20.63;29.67
54666;BME280;40566;50.006;36.180;2023-06-04T13:27:22;100388.94;;;21.14;28.98
54666;BME280;40566;50.006;36.180;2023-06-04T13:32:23;100394.75;;;21.05;29.04
54666;BME280;40566;50.006;36.180;2023-06-04T13:37:23;100388.66;;;20.75;29.43
54666;BME280;40566;50.006;36.180;2023-06-04T13:42:24;100384.06;;;20.49;29.61
54666;BME280;40566;50.006;36.180;2023-06-04T13:47:25;100386.44;;;20.23;30.00
54666;BME280;40566;50.006;36.180;2023-06-04T13:52:25;100378.34;;;19.96;30.05
54666;BME280;40566;50.006;36.180;2023-06-04T13:57:28;100375.72;;;19.96;30.27
54666;BME280;40566;50.006;36.180;2023-06-04T14:02:29;100374.88;;;19.95;30.52
54666;BME280;40566;50.006;36.180;2023-06-04T14:07:29;100372.75;;;19.86;30.32
54666;BME280;40566;50.006;36.180;2023-06-04T14:12:30;100365.50;;;19.75;30.38
54666;BME280;40566;50.006;36.180;2023-06-04T14:17:31;100369.22;;;19.71;30.54
54666;BME280;40566;50.006;36.180;2023-06-04T14:22:31;100354.97;;;19.59;30.44
54666;BME280;40566;50.006;36.180;2023-06-04T14:27:33;100347.53;;;19.52;30.31
54666;BME280;40566;50.006;36.180;2023-06-04T14:32:35;100350.31;;;19.49;30.69
54666;BME280;40566;50.006;36.180;2023-06-04T14:37:36;100352.59;;;19.39;30.91
54666;BME280;40566;50.006;36.180;2023-06-04T14:42:37;100350.66;;;19.27;31.14
54666;BME280;40566;50.006;36.180;2023-06-04T14:47:37;100350.56;;;19.28;31.12
54666;BME280;40566;50.006;36.180;2023-06-04T14:52:38;100360.28;;;19.26;31.06
54666;BME280;40566;50.006;36.180;2023-06-04T14:57:38;100360.78;;;19.17;31.40
54666;BME280;40566;50.006;36.180;2023-06-04T15:02:40;100344.47;;;19.12;31.59
54666;BME280;40566;50.006;36.180;2023-06-04T15:07:40;100364.91;;;19.05;31.55
54666;BME280;40566;50.006;36.180;2023-06-04T15:12:41;100371.31;;;18.99;31.65
54666;BME280;40566;50.006;36.180;2023-06-04T15:17:42;100355.69;;;18.98;31.48
54666;BME280;40566;50.006;36.180;2023-06-04T15:22:42;100357.84;;;18.90;31.72
54666;BME280;40566;50.006;36.180;2023-06-04T15:27:43;100368.75;;;18.82;31.82
54666;BME280;40566;50.006;36.180;2023-06-04T15:32:44;100365.63;;;18.74;31.80
54666;BME280;40566;50.006;36.180;2023-06-04T15:37:44;100372.22;;;18.65;32.07
54666;BME280;40566;50.006;36.180;2023-06-04T15:42:46;100362.19;;;18.56;31.74
54666;BME280;40566;50.006;36.180;2023-06-04T15:47:46;100364.28;;;18.49;31.68
54666;BME280;40566;50.006;36.180;2023-06-04T15:52:47;100369.06;;;18.41;31.88
54666;BME280;40566;50.006;36.180;2023-06-04T15:57:48;100370.16;;;18.37;31.71
54666;BME280;40566;50.006;36.180;2023-06-04T16:02:49;100361.66;;;18.32;32.13
54666;BME280;40566;50.006;36.180;2023-06-04T16:07:50;100362.97;;;18.23;32.61
54666;BME280;40566;50.006;36.180;2023-06-04T16:12:51;100370.28;;;18.16;32.81
54666;BME280;40566;50.006;36.180;2023-06-04T16:17:51;100368.91;;;18.09;32.50
54666;BME280;40566;50.006;36.180;2023-06-04T16:22:52;100374.56;;;18.00;32.74
54666;BME280;40566;50.006;36.180;2023-06-04T16:27:52;100369.00;;;17.89;33.18
54666;BME280;40566;50.006;36.180;2023-06-04T16:32:53;100373.53;;;17.85;33.71
54666;BME280;40566;50.006;36.180;2023-06-04T16:37:54;100365.16;;;17.77;33.55
54666;BME280;40566;50.006;36.180;2023-06-04T16:42:55;100373.47;;;17.68;33.81
54666;BME280;40566;50.006;36.180;2023-06-04T16:47:56;100377.22;;;17.62;33.83
54666;BME280;40566;50.006;36.180;2023-06-04T16:52:58;100377.72;;;17.51;34.27
54666;BME280;40566;50.006;36.180;2023-06-04T16:58:00;100370.22;;;17.43;34.16
54666;BME280;40566;50.006;36.180;2023-06-04T17:03:00;100375.81;;;17.36;34.52
54666;BME280;40566;50.006;36.180;2023-06-04T17:08:01;100373.56;;;17.28;34.97
54666;BME280;40566;50.006;36.180;2023-06-04T17:13:02;100380.88;;;17.20;35.23
54666;BME280;40566;50.006;36.180;2023-06-04T17:18:02;100379.88;;;17.03;35.62
54666;BME280;40566;50.006;36.180;2023-06-04T17:23:21;100383.09;;;16.90;36.10
54666;BME280;40566;50.006;36.180;2023-06-04T17:28:22;100392.44;;;16.75;36.60
54666;BME280;40566;50.006;36.180;2023-06-04T17:33:22;100399.97;;;16.60;36.79
54666;BME280;40566;50.006;36.180;2023-06-04T17:38:23;100402.13;;;16.51;37.36
54666;BME280;40566;50.006;36.180;2023-06-04T17:43:23;100401.09;;;16.34;37.62
54666;BME280;40566;50.006;36.180;2023-06-04T17:48:24;100413.00;;;16.19;38.17
54666;BME280;40566;50.006;36.180;2023-06-04T17:53:25;100415.06;;;16.11;38.33
54666;BME280;40566;50.006;36.180;2023-06-04T17:58:26;100414.91;;;15.94;38.53
54666;BME280;40566;50.006;36.180;2023-06-04T18:03:27;100411.72;;;15.85;38.95
54666;BME280;40566;50.006;36.180;2023-06-04T18:08:29;100419.97;;;15.75;39.09
54666;BME280;40566;50.006;36.180;2023-06-04T18:13:29;100422.00;;;15.66;39.41
54666;BME280;40566;50.006;36.180;2023-06-04T18:18:30;100428.34;;;15.59;39.51
54666;BME280;40566;50.006;36.180;2023-06-04T18:23:30;100433.97;;;15.49;39.77
54666;BME280;40566;50.006;36.180;2023-06-04T18:28:31;100441.31;;;15.37;40.00
54666;BME280;40566;50.006;36.180;2023-06-04T18:33:31;100438.94;;;15.31;40.03
54666;BME280;40566;50.006;36.180;2023-06-04T18:38:32;100439.16;;;15.25;40.48
54666;BME280;40566;50.006;36.180;2023-06-04T18:43:33;100445.50;;;15.18;40.53
54666;BME280;40566;50.006;36.180;2023-06-04T18:48:33;100435.47;;;15.07;40.77
54666;BME280;40566;50.006;36.180;2023-06-04T18:53:34;100434.81;;;15.00;41.09
54666;BME280;40566;50.006;36.180;2023-06-04T18:58:34;100435.16;;;14.91;41.20
54666;BME280;40566;50.006;36.180;2023-06-04T19:03:35;100442.34;;;14.83;41.50
54666;BME280;40566;50.006;36.180;2023-06-04T19:08:37;100440.88;;;14.76;41.54
54666;BME280;40566;50.006;36.180;2023-06-04T19:13:38;100440.28;;;14.67;41.91
54666;BME280;40566;50.006;36.180;2023-06-04T19:18:38;100441.38;;;14.60;42.30
54666;BME280;40566;50.006;36.180;2023-06-04T19:23:39;100443.44;;;14.49;42.24
54666;BME280;40566;50.006;36.180;2023-06-04T19:28:40;100437.66;;;14.41;42.66
54666;BME280;40566;50.006;36.180;2023-06-04T19:33:40;100432.56;;;14.38;42.71
54666;BME280;40566;50.006;36.180;2023-06-04T19:38:41;100430.16;;;14.32;42.91
54666;BME280;40566;50.006;36.180;2023-06-04T19:43:44;100428.69;;;14.23;43.00
54666;BME280;40566;50.006;36.180;2023-06-04T19:48:46;100438.50;;;14.15;43.02
54666;BME280;40566;50.006;36.180;2023-06-04T19:53:46;100445.69;;;14.06;43.19
54666;BME280;40566;50.006;36.180;2023-06-04T19:58:47;100447.69;;;13.98;43.30
54666;BME280;40566;50.006;36.180;2023-06-04T20:03:49;100443.59;;;13.89;43.59
54666;BME280;40566;50.006;36.180;2023-06-04T20:08:49;100441.09;;;13.86;43.50
54666;BME280;40566;50.006;36.180;2023-06-04T20:13:50;100442.91;;;13.84;43.82
54666;BME280;40566;50.006;36.180;2023-06-04T20:18:51;100439.41;;;13.84;43.67
54666;BME280;40566;50.006;36.180;2023-06-04T20:23:51;100436.09;;;13.80;43.76
54666;BME280;40566;50.006;36.180;2023-06-04T20:28:54;100435.31;;;13.77;44.10
54666;BME280;40566;50.006;36.180;2023-06-04T20:33:55;100445.00;;;13.72;44.08
54666;BME280;40566;50.006;36.180;2023-06-04T20:38:56;100440.03;;;13.64;44.48
54666;BME280;40566;50.006;36.180;2023-06-04T20:43:57;100445.38;;;13.59;45.01
54666;BME280;40566;50.006;36.180;2023-06-04T20:48:58;100440.38;;;13.52;45.11
54666;BME280;40566;50.006;36.180;2023-06-04T20:53:59;100444.84;;;13.46;44.99
54666;BME280;40566;50.006;36.180;2023-06-04T20:58:59;100443.31;;;13.41;45.11
54666;BME280;40566;50.006;36.180;2023-06-04T21:04:00;100440.75;;;13.39;45.24
54666;BME280;40566;50.006;36.180;2023-06-04T21:09:01;100437.50;;;13.31;45.48
54666;BME280;40566;50.006;36.180;2023-06-04T21:14:01;100448.97;;;13.22;45.37
54666;BME280;40566;50.006;36.180;2023-06-04T21:19:02;100440.47;;;13.17;45.50
54666;BME280;40566;50.006;36.180;2023-06-04T21:24:02;100440.53;;;13.14;45.51
54666;BME280;40566;50.006;36.180;2023-06-04T21:29:03;100436.50;;;13.02;45.62
54666;BME280;40566;50.006;36.180;2023-06-04T21:34:04;100442.75;;;12.95;45.70
54666;BME280;40566;50.006;36.180;2023-06-04T21:39:04;100449.84;;;12.88;45.84
54666;BME280;40566;50.006;36.180;2023-06-04T21:44:05;100452.59;;;12.84;46.11
54666;BME280;40566;50.006;36.180;2023-06-04T21:49:06;100459.59;;;12.80;46.46
54666;BME280;40566;50.006;36.180;2023-06-04T21:54:06;100456.16;;;12.80;46.46
54666;BME280;40566;50.006;36.180;2023-06-04T21:59:09;100452.84;;;12.73;46.59
54666;BME280;40566;50.006;36.180;2023-06-04T22:04:09;100450.41;;;12.67;46.81
54666;BME280;40566;50.006;36.180;2023-06-04T22:09:10;100451.50;;;12.58;46.85
54666;BME280;40566;50.006;36.180;2023-06-04T22:14:10;100455.06;;;12.54;46.84
54666;BME280;40566;50.006;36.180;2023-06-04T22:19:11;100453.44;;;12.50;47.18
54666;BME280;40566;50.006;36.180;2023-06-04T22:24:12;100457.03;;;12.44;47.12
54666;BME280;40566;50.006;36.180;2023-06-04T22:29:12;100465.88;;;12.36;47.41
54666;BME280;40566;50.006;36.180;2023-06-04T22:34:13;100475.44;;;12.32;47.80
54666;BME280;40566;50.006;36.180;2023-06-04T22:39:13;100470.41;;;12.26;47.87
54666;BME280;40566;50.006;36.180;2023-06-04T22:44:14;100474.84;;;12.22;48.34
54666;BME280;40566;50.006;36.180;2023-06-04T22:49:15;100468.88;;;12.19;48.25
54666;BME280;40566;50.006;36.180;2023-06-04T22:54:15;100481.97;;;12.13;48.35
54666;BME280;40566;50.006;36.180;2023-06-04T22:59:16;100478.59;;;12.09;48.49
54666;BME280;40566;50.006;36.180;2023-06-04T23:04:17;100474.38;;;12.03;48.35
54666;BME280;40566;50.006;36.180;2023-06-04T23:09:17;100478.88;;;11.97;48.62
54666;BME280;40566;50.006;36.180;2023-06-04T23:14:18;100478.91;;;11.94;48.67
54666;BME280;40566;50.006;36.180;2023-06-04T23:19:18;100484.16;;;11.90;48.63
54666;BME280;40566;50.006;36.180;2023-06-04T23:24:19;100480.81;;;11.84;48.96
54666;BME280;40566;50.006;36.180;2023-06-04T23:29:20;100483.44;;;11.82;49.18
54666;BME280;40566;50.006;36.180;2023-06-04T23:34:20;100485.34;;;11.74;49.50
54666;BME280;40566;50.006;36.180;2023-06-04T23:39:21;100488.91;;;11.68;49.86
54666;BME280;40566;50.006;36.180;2023-06-04T23:44:22;100490.69;;;11.65;50.21
54666;BME280;40566;50.006;36.180;2023-06-04T23:49:22;100487.28;;;11.63;50.26
54666;BME280;40566;50.006;36.180;2023-06-04T23:54:23;100481.41;;;11.55;50.38
54666;BME280;40566;50.006;36.180;2023-06-04T23:59:23;100481.53;;;11.48;50.43
